createdAt,value
2019-03-11T00:00:42.002Z,120033.27
2019-03-11T00:03:31.995Z,120033.27
2019-03-11T00:06:03.242Z,120033.27
2019-03-11T00:08:35.656Z,120033.27
2019-03-11T00:11:06.367Z,120033.27
2019-03-11T00:13:37.011Z,120033.27
2019-03-11T00:16:08.404Z,120033.27
2019-03-11T00:18:40.181Z,120033.27
2019-03-11T00:21:11.592Z,120033.27
2019-03-11T00:23:42.821Z,120033.27
2019-03-11T00:26:14.129Z,120033.27
2019-03-11T00:28:45.065Z,120033.27
2019-03-11T00:31:16.666Z,120033.27
2019-03-11T00:34:00.519Z,120033.27
2019-03-11T00:36:31.742Z,120033.27
2019-03-11T00:39:02.855Z,120033.27
2019-03-11T00:41:36.948Z,120033.27
2019-03-11T00:44:07.929Z,120033.27
2019-03-11T00:46:39.443Z,120033.27
2019-03-11T00:49:10.514Z,120033.27
2019-03-11T00:51:42.199Z,120033.27
2019-03-11T00:54:28.913Z,120033.27
2019-03-11T00:57:00.509Z,120033.27
2019-03-11T00:59:31.478Z,120033.27
2019-03-11T01:02:02.628Z,120033.27
2019-03-11T01:04:34.163Z,120033.27
2019-03-11T01:07:05.073Z,120033.27
2019-03-11T01:09:36.319Z,120033.27
2019-03-11T01:12:09.042Z,120033.27
2019-03-11T01:14:41.388Z,120033.27
2019-03-11T01:17:12.443Z,120033.27
2019-03-11T01:19:43.857Z,120033.27
2019-03-11T01:22:15.125Z,120033.27
2019-03-11T01:24:46.133Z,120033.27
2019-03-11T01:27:16.781Z,120033.27
2019-03-11T01:29:54.486Z,120033.27
2019-03-11T01:32:25.818Z,120033.27
2019-03-11T01:35:10.091Z,120033.27
2019-03-11T01:37:40.810Z,120033.27
2019-03-11T01:40:13.298Z,120033.27
2019-03-11T01:42:44.633Z,120033.27
2019-03-11T01:45:16.089Z,120033.27
2019-03-11T01:47:47.195Z,120033.27
2019-03-11T01:50:18.073Z,120033.27
2019-03-11T01:52:50.036Z,120033.27
2019-03-11T01:55:20.780Z,120033.27
2019-03-11T01:57:51.914Z,120033.27
2019-03-11T02:00:22.431Z,120033.27
2019-03-11T03:02:21.711Z,97352.05
2019-03-11T03:05:06.970Z,97342.34
2019-03-11T03:07:38.304Z,97341.33
2019-03-11T03:10:11.050Z,97334.27
2019-03-11T03:12:42.771Z,97328.42
2019-03-11T03:15:14.565Z,97336.36
2019-03-11T03:17:45.863Z,97328.06
2019-03-11T03:20:16.666Z,97324.70
2019-03-11T03:22:48.042Z,97328.27
2019-03-11T03:25:33.139Z,97322.69
2019-03-11T03:27:52.431Z,97317.99
2019-03-11T03:30:23.618Z,97305.98
2019-03-11T03:33:21.689Z,97309.45
2019-03-11T03:35:53.678Z,97299.87
2019-03-11T03:38:30.296Z,97297.25
2019-03-11T03:40:57.956Z,97290.02
2019-03-11T03:43:29.072Z,97290.64
2019-03-11T03:46:00.074Z,97296.54
2019-03-11T03:48:30.901Z,97300.49
2019-03-11T03:51:02.660Z,97297.37
2019-03-11T03:53:39.561Z,97298.78
2019-03-11T03:56:10.912Z,97301.84
2019-03-11T03:58:41.942Z,97283.33
2019-03-11T04:01:13.007Z,97289.81
2019-03-11T04:03:45.071Z,97280.53
2019-03-11T04:06:16.002Z,97279.31
2019-03-11T04:08:47.399Z,97282.75
2019-03-11T04:11:18.449Z,97292.25
2019-03-11T04:13:50.146Z,97296.52
2019-03-11T04:16:21.944Z,97300.95
2019-03-11T04:18:57.611Z,97297.19
2019-03-11T04:21:29.000Z,97287.30
2019-03-11T04:24:01.913Z,97303.49
2019-03-11T04:26:33.530Z,97299.17
2019-03-11T04:29:04.190Z,97293.27
2019-03-11T04:31:35.217Z,97285.97
2019-03-11T04:34:05.933Z,97283.16
2019-03-11T04:36:37.194Z,97265.37
2019-03-11T04:39:09.264Z,97282.94
2019-03-11T04:41:56.318Z,97273.09
2019-03-11T04:44:27.582Z,97255.73
2019-03-11T04:46:58.871Z,97253.27
2019-03-11T04:49:29.827Z,97244.63
2019-03-11T04:52:00.838Z,97254.95
2019-03-11T04:54:31.826Z,97256.80
2019-03-11T04:57:03.192Z,97250.84
2019-03-11T04:59:34.671Z,97249.69
2019-03-11T05:02:05.304Z,97261.20
2019-03-11T05:04:36.613Z,97242.52
2019-03-11T05:07:07.894Z,97260.05
2019-03-11T05:09:38.788Z,97256.53
2019-03-11T05:12:10.077Z,97247.19
2019-03-11T05:14:41.823Z,97236.20
2019-03-11T05:17:12.882Z,97234.44
2019-03-11T05:19:45.649Z,97215.80
2019-03-11T05:22:25.152Z,97229.08
2019-03-11T05:24:56.152Z,97227.06
2019-03-11T05:27:27.208Z,97219.00
2019-03-11T05:29:59.201Z,97212.14
2019-03-11T05:32:30.525Z,97228.59
2019-03-11T05:35:01.936Z,97220.04
2019-03-11T05:37:33.430Z,97209.10
2019-03-11T05:40:04.046Z,97228.81
2019-03-11T05:42:35.472Z,97221.11
2019-03-11T05:45:07.424Z,97225.20
2019-03-11T05:47:38.935Z,97216.89
2019-03-11T05:50:32.448Z,97217.84
2019-03-11T05:53:03.675Z,97201.08
2019-03-11T05:55:38.772Z,97198.27
2019-03-11T05:58:09.447Z,97198.35
2019-03-11T06:00:47.903Z,97186.86
2019-03-11T06:03:19.248Z,97190.21
2019-03-11T06:05:49.964Z,97184.14
2019-03-11T06:08:29.961Z,97198.09
2019-03-11T06:11:00.687Z,97197.39
2019-03-11T06:13:36.262Z,97187.25
2019-03-11T06:16:05.185Z,97186.67
2019-03-11T06:18:49.185Z,97183.75
2019-03-11T06:21:28.902Z,97191.05
2019-03-11T06:24:01.056Z,97172.19
2019-03-11T06:26:38.968Z,97187.87
2019-03-11T06:29:10.009Z,97191.05
2019-03-11T06:31:41.684Z,97185.40
2019-03-11T06:34:33.600Z,97202.91
2019-03-11T06:37:08.911Z,97172.13
2019-03-11T06:39:40.078Z,97197.30
2019-03-11T06:42:18.273Z,97205.09
2019-03-11T06:44:49.631Z,97208.53
2019-03-11T06:47:20.923Z,97213.83
2019-03-11T06:49:52.121Z,97207.02
2019-03-11T06:52:23.452Z,97218.55
2019-03-11T06:55:03.932Z,97213.55
2019-03-11T06:57:34.695Z,97204.17
2019-03-11T07:00:20.288Z,97194.35
2019-03-11T07:02:55.080Z,97203.07
2019-03-11T07:05:33.014Z,97219.00
2019-03-11T07:08:03.350Z,97219.67
2019-03-11T07:10:34.336Z,97217.97
2019-03-11T07:13:19.861Z,97223.25
2019-03-11T07:15:50.968Z,97222.96
2019-03-11T07:18:22.361Z,97224.45
2019-03-11T07:20:54.576Z,97209.59
2019-03-11T07:23:33.294Z,97226.78
2019-03-11T07:26:04.004Z,97203.22
2019-03-11T07:28:35.289Z,97213.25
2019-03-11T07:31:07.355Z,97223.06
2019-03-11T07:33:38.403Z,97238.25
2019-03-11T07:36:10.069Z,97239.41
2019-03-11T07:38:41.408Z,97244.27
2019-03-11T07:41:13.146Z,97259.34
2019-03-11T07:43:45.319Z,97252.46
2019-03-11T07:46:16.623Z,97256.20
2019-03-11T07:48:47.829Z,97267.86
2019-03-11T07:51:18.852Z,97272.52
2019-03-11T07:53:51.157Z,97280.96
2019-03-11T07:56:22.883Z,97286.98
2019-03-11T07:58:54.809Z,97286.65
2019-03-11T08:01:26.482Z,97283.50
2019-03-11T08:03:58.131Z,97291.89
2019-03-11T08:06:29.625Z,97294.23
2019-03-11T08:09:00.644Z,97305.47
2019-03-11T08:11:32.351Z,97295.19
2019-03-11T08:14:03.765Z,97338.70
2019-03-11T08:16:34.879Z,97392.95
2019-03-11T08:19:06.530Z,97419.52
2019-03-11T08:21:37.877Z,97405.16
2019-03-11T08:24:08.836Z,97396.88
2019-03-11T08:26:40.250Z,97381.05
2019-03-11T08:29:11.879Z,97391.14
2019-03-11T08:31:42.983Z,97387.16
2019-03-11T08:34:14.378Z,97378.42
2019-03-11T08:36:45.816Z,97371.23
2019-03-11T08:39:16.808Z,97368.15
2019-03-11T08:41:48.188Z,97386.95
2019-03-11T08:44:19.573Z,97373.26
2019-03-11T08:46:50.651Z,97369.28
2019-03-11T08:49:22.747Z,97364.97
2019-03-11T08:51:53.769Z,97350.89
2019-03-11T08:54:25.220Z,97356.89
2019-03-11T08:56:56.851Z,97366.17
2019-03-11T08:59:27.635Z,97384.06
2019-03-11T09:01:59.852Z,97393.31
2019-03-11T09:04:30.957Z,97380.78
2019-03-11T09:07:02.258Z,97378.89
2019-03-11T09:09:33.287Z,97376.66
2019-03-11T09:12:03.944Z,97376.42
2019-03-11T09:14:35.021Z,97373.77
2019-03-11T09:17:06.340Z,97378.89
2019-03-11T09:19:36.988Z,97380.66
2019-03-11T09:22:14.220Z,97393.06
2019-03-11T09:24:45.854Z,97391.07
2019-03-11T09:27:17.242Z,97369.92
2019-03-11T09:29:48.665Z,97363.01
2019-03-11T09:32:19.737Z,97357.27
2019-03-11T09:34:51.032Z,97363.59
2019-03-11T09:37:21.794Z,97360.73
2019-03-11T09:39:53.506Z,97359.97
2019-03-11T09:42:24.928Z,97355.42
2019-03-11T09:44:56.703Z,97354.05
2019-03-11T09:47:28.403Z,97352.58
2019-03-11T09:49:59.064Z,97354.41
2019-03-11T09:52:30.381Z,97354.06
2019-03-11T09:55:01.749Z,97344.62
2019-03-11T09:57:32.404Z,97345.87
2019-03-11T10:00:04.212Z,97352.14
2019-03-11T10:02:35.290Z,97355.69
2019-03-11T10:05:27.825Z,97356.47
2019-03-11T10:07:59.482Z,97360.08
2019-03-11T10:10:30.140Z,97361.13
2019-03-11T10:13:01.451Z,97355.27
2019-03-11T10:15:39.241Z,97369.08
2019-03-11T10:18:10.632Z,97371.33
2019-03-11T10:20:42.046Z,97370.16
2019-03-11T10:23:13.343Z,97372.88
2019-03-11T10:25:44.041Z,97378.81
2019-03-11T10:28:15.169Z,97379.07
2019-03-11T10:31:07.745Z,97377.01
2019-03-11T10:33:39.479Z,97371.66
2019-03-11T10:36:10.178Z,97365.12
2019-03-11T10:38:41.860Z,97365.50
2019-03-11T10:41:12.926Z,97366.91
2019-03-11T10:43:44.263Z,97360.59
2019-03-11T10:46:15.303Z,97367.23
2019-03-11T10:48:46.688Z,97371.07
2019-03-11T10:51:18.013Z,97366.91
2019-03-11T10:53:48.744Z,97373.80
2019-03-11T10:56:20.690Z,97389.55
2019-03-11T10:58:51.922Z,97440.30
2019-03-11T11:01:23.300Z,97438.28
2019-03-11T11:03:54.657Z,97472.73
2019-03-11T11:06:25.941Z,97496.20
2019-03-11T11:08:57.334Z,97472.14
2019-03-11T11:11:28.438Z,97482.67
2019-03-11T11:14:01.748Z,97479.97
2019-03-11T11:16:32.832Z,97483.04
2019-03-11T11:19:06.115Z,97485.64
2019-03-11T11:21:37.172Z,97485.92
2019-03-11T11:24:08.503Z,97483.21
2019-03-11T11:26:40.266Z,97494.71
2019-03-11T11:29:11.500Z,97493.80
2019-03-11T11:31:43.327Z,97493.20
2019-03-11T11:34:14.634Z,97493.25
2019-03-11T11:36:46.646Z,97499.75
2019-03-11T11:39:18.986Z,97500.57
2019-03-11T11:41:49.721Z,97497.30
2019-03-11T11:44:21.141Z,97496.42
2019-03-11T11:46:51.863Z,97499.11
2019-03-11T11:49:23.008Z,97489.56
2019-03-11T11:52:00.304Z,97480.84
2019-03-11T11:54:31.979Z,97489.70
2019-03-11T11:57:02.986Z,97478.48
2019-03-11T11:59:34.345Z,97482.59
2019-03-11T12:02:05.400Z,97482.72
2019-03-11T12:04:36.111Z,97484.44
2019-03-11T12:07:06.561Z,97490.83
2019-03-11T12:09:38.299Z,97487.52
2019-03-11T12:12:16.309Z,97488.16
2019-03-11T12:14:47.265Z,97497.77
2019-03-11T12:17:19.127Z,97486.41
2019-03-11T12:19:50.870Z,97481.77
2019-03-11T12:22:22.296Z,97470.76
2019-03-11T12:24:53.538Z,97475.88
2019-03-11T12:27:24.202Z,97482.28
2019-03-11T12:29:54.828Z,97489.42
2019-03-11T12:32:26.176Z,97492.41
2019-03-11T12:34:57.691Z,97501.83
2019-03-11T12:37:29.588Z,97503.95
2019-03-11T12:40:01.319Z,97493.08
2019-03-11T12:42:32.977Z,97502.41
2019-03-11T12:45:04.786Z,97517.02
2019-03-11T12:48:02.044Z,97519.81
2019-03-11T12:50:32.405Z,97516.02
2019-03-11T12:53:07.478Z,97533.84
2019-03-11T12:55:38.807Z,97537.16
2019-03-11T12:58:09.966Z,97533.44
2019-03-11T13:00:41.294Z,97526.44
2019-03-11T13:03:12.341Z,97526.73
2019-03-11T13:05:44.025Z,97536.35
2019-03-11T13:08:15.082Z,97534.24
2019-03-11T13:10:46.383Z,97533.28
2019-03-11T13:13:19.110Z,97530.42
2019-03-11T13:15:50.146Z,97537.25
2019-03-11T13:18:48.044Z,97525.82
2019-03-11T13:21:41.906Z,97539.45
2019-03-11T13:24:13.409Z,97538.31
2019-03-11T13:26:44.543Z,97543.97
2019-03-11T13:29:15.921Z,97554.87
2019-03-11T13:31:47.240Z,97567.27
2019-03-11T13:34:18.623Z,97580.16
2019-03-11T13:36:49.959Z,97577.61
2019-03-11T13:39:20.907Z,97578.66
2019-03-11T13:41:53.132Z,97584.77
2019-03-11T13:44:24.503Z,97595.16
2019-03-11T13:46:55.870Z,97588.66
2019-03-11T13:49:27.314Z,97591.75
2019-03-11T13:51:58.741Z,97594.53
2019-03-11T13:54:29.454Z,97592.50
2019-03-11T13:57:00.532Z,97592.89
2019-03-11T13:59:31.914Z,97596.54
2019-03-11T14:02:02.820Z,97595.09
2019-03-11T14:04:33.860Z,97604.56
2019-03-11T14:07:05.617Z,97606.70
2019-03-11T14:09:37.336Z,97603.44
2019-03-11T14:12:09.020Z,97594.31
2019-03-11T14:14:40.616Z,97610.52
2019-03-11T14:17:12.279Z,97620.55
2019-03-11T14:19:43.536Z,97637.47
2019-03-11T14:22:14.993Z,97633.32
2019-03-11T14:24:45.922Z,97634.25
2019-03-11T14:27:17.482Z,97635.47
2019-03-11T14:29:49.487Z,97635.48
2019-03-11T14:32:20.766Z,97618.34
2019-03-11T14:34:52.410Z,97623.50
2019-03-11T14:37:23.439Z,97632.54
2019-03-11T14:39:54.238Z,97625.47
2019-03-11T14:42:25.499Z,97630.19
2019-03-11T14:44:56.790Z,97634.48
2019-03-11T14:47:28.183Z,97643.92
2019-03-11T14:49:59.596Z,97634.13
2019-03-11T14:52:31.348Z,97638.57
2019-03-11T14:55:02.359Z,97637.14
2019-03-11T14:57:34.122Z,97628.61
2019-03-11T15:00:04.755Z,97635.63
2019-03-11T15:02:35.461Z,97640.68
2019-03-11T15:08:54.156Z,97632.57
2019-03-11T15:11:31.381Z,97643.51
2019-03-11T15:14:02.978Z,97637.27
2019-03-11T15:16:34.254Z,97632.41
2019-03-11T15:19:05.586Z,97636.48
2019-03-11T15:21:42.451Z,97627.27
2019-03-11T15:24:14.157Z,97620.89
2019-03-11T15:26:45.548Z,97622.07
2019-03-11T15:29:16.110Z,97631.63
2019-03-11T15:31:47.778Z,97622.84
2019-03-11T15:34:19.497Z,97621.81
2019-03-11T15:36:50.966Z,97618.95
2019-03-11T15:39:21.861Z,97616.28
2019-03-11T15:41:53.136Z,97614.39
2019-03-11T15:44:23.480Z,97611.26
2019-03-11T15:46:56.558Z,97602.40
2019-03-11T15:49:33.133Z,97602.07
2019-03-11T15:52:03.894Z,97619.41
2019-03-11T15:54:35.328Z,97607.70
2019-03-11T15:57:24.282Z,97596.20
2019-03-11T15:59:55.739Z,97608.34
2019-03-11T16:02:27.694Z,97610.58
2019-03-11T16:04:58.850Z,97600.37
2019-03-11T16:07:32.514Z,97605.61
2019-03-11T16:10:03.218Z,97609.84
2019-03-11T16:12:34.542Z,97606.08
2019-03-11T16:15:24.716Z,97612.48
2019-03-11T16:17:55.853Z,97614.75
2019-03-11T16:20:27.634Z,97619.48
2019-03-11T16:22:58.961Z,97616.41
2019-03-11T16:26:10.861Z,97621.33
2019-03-11T16:28:48.005Z,97623.36
2019-03-11T16:31:15.403Z,97620.42
2019-03-11T16:33:46.655Z,97623.50
2019-03-11T16:36:17.605Z,97627.30
2019-03-11T16:38:48.638Z,97629.23
2019-03-11T16:41:21.721Z,97647.66
2019-03-11T16:43:53.940Z,97642.97
2019-03-11T16:46:25.311Z,97657.62
2019-03-11T16:48:56.960Z,97656.44
2019-03-11T16:51:28.756Z,97657.19
2019-03-11T16:53:59.758Z,97679.13
2019-03-11T16:56:30.955Z,97678.39
2019-03-11T16:59:02.251Z,97678.69
2019-03-11T17:01:32.944Z,97679.45
2019-03-11T17:04:08.312Z,97682.47
2019-03-11T17:06:39.058Z,97688.53
2019-03-11T17:09:11.563Z,97696.61
2019-03-11T17:11:46.274Z,97711.91
2019-03-11T17:14:17.209Z,97717.86
2019-03-11T17:16:53.179Z,97723.52
2019-03-11T17:19:23.464Z,97719.94
2019-03-11T17:21:54.832Z,97725.40
2019-03-11T17:24:25.864Z,97735.67
2019-03-11T17:26:57.498Z,97740.18
2019-03-11T17:29:29.192Z,97750.38
2019-03-11T17:31:59.791Z,97754.03
2019-03-11T17:34:32.999Z,97752.79
2019-03-11T17:37:03.662Z,97748.59
2019-03-11T17:39:35.112Z,97757.16
2019-03-11T17:42:06.181Z,97764.09
2019-03-11T17:44:37.262Z,97776.73
2019-03-11T17:47:08.688Z,97787.32
2019-03-11T17:49:40.560Z,97797.15
2019-03-11T17:52:12.368Z,97813.11
2019-03-11T17:54:43.067Z,97805.45
2019-03-11T17:57:14.578Z,97807.64
2019-03-11T17:59:46.273Z,97800.66
2019-03-11T18:02:16.694Z,97819.45
2019-03-11T18:04:48.053Z,97816.52
2019-03-11T18:07:18.463Z,97823.70
2019-03-11T18:09:49.798Z,97828.80
2019-03-11T18:12:21.307Z,97828.42
2019-03-11T18:14:52.424Z,97841.50
2019-03-11T18:17:23.841Z,97850.16
2019-03-11T18:19:55.150Z,97853.64
2019-03-11T18:22:26.171Z,97837.26
2019-03-11T18:24:57.264Z,97848.16
2019-03-11T18:27:28.820Z,97848.83
2019-03-11T18:29:59.830Z,97851.29
2019-03-11T18:32:31.772Z,97851.28
2019-03-11T18:35:03.284Z,97851.80
2019-03-11T18:37:43.897Z,97855.42
2019-03-11T18:40:16.162Z,97857.72
2019-03-11T18:42:47.711Z,97856.47
2019-03-11T18:45:20.086Z,97866.75
2019-03-11T18:47:51.709Z,97862.09
2019-03-11T18:50:22.117Z,97859.66
2019-03-11T18:52:53.480Z,97863.28
2019-03-11T18:55:24.653Z,97869.05
2019-03-11T18:57:56.420Z,97869.22
2019-03-11T19:00:27.067Z,97860.64
2019-03-11T19:02:58.378Z,97862.82
2019-03-11T19:05:40.475Z,97857.86
2019-03-11T19:08:12.070Z,97864.25
2019-03-11T19:10:42.336Z,97871.58
2019-03-11T19:13:13.386Z,97874.61
2019-03-11T19:15:45.186Z,97872.27
2019-03-11T19:18:16.200Z,97884.45
2019-03-11T19:20:49.903Z,97885.00
2019-03-11T19:23:21.570Z,97889.56
2019-03-11T19:26:01.658Z,97892.66
2019-03-11T19:28:32.901Z,97896.72
2019-03-11T19:31:04.041Z,97899.73
2019-03-11T19:33:42.963Z,97903.02
2019-03-11T19:36:14.413Z,97903.64
2019-03-11T19:38:51.696Z,97911.48
2019-03-11T19:41:25.139Z,97909.72
2019-03-11T19:44:00.999Z,97916.00
2019-03-11T19:46:32.281Z,97918.63
2019-03-11T19:49:09.953Z,97919.32
2019-03-11T19:51:48.131Z,97919.63
2019-03-11T19:54:25.063Z,97918.83
2019-03-11T19:56:57.737Z,97924.15
2019-03-11T19:59:28.549Z,97924.35
2019-03-11T20:01:59.629Z,97934.66
2019-03-11T20:04:31.279Z,97927.98
2019-03-11T20:07:05.076Z,97930.95
2019-03-11T20:09:40.690Z,97932.31
2019-03-11T20:12:11.806Z,97934.05
2019-03-11T20:14:43.780Z,97934.75
2019-03-11T20:17:18.049Z,97941.81
2019-03-11T20:19:49.332Z,97938.78
2019-03-11T20:22:24.402Z,97939.20
2019-03-11T20:25:10.848Z,97934.25
2019-03-11T20:27:41.905Z,97942.48
2019-03-11T20:30:21.132Z,97954.38
2019-03-11T20:32:54.660Z,97952.30
2019-03-11T20:35:26.061Z,97948.29
2019-03-11T20:38:03.476Z,97946.59
2019-03-11T20:40:35.147Z,97958.03
2019-03-11T20:43:07.378Z,97956.20
2019-03-11T20:45:39.096Z,97957.80
2019-03-11T20:48:09.804Z,97952.08
2019-03-11T20:50:49.537Z,97957.18
2019-03-11T20:53:23.063Z,97955.23
2019-03-11T20:55:54.752Z,97959.11
2019-03-11T20:58:39.979Z,97958.52
2019-03-11T21:01:13.170Z,97940.75
2019-03-11T21:03:56.895Z,97953.59
2019-03-11T21:06:27.986Z,97970.00
2019-03-11T21:08:59.467Z,97959.45
2019-03-11T21:11:34.930Z,97962.49
2019-03-11T21:14:12.832Z,97976.31
2019-03-11T21:16:44.256Z,97971.53
2019-03-11T21:19:21.007Z,97970.52
2019-03-11T21:22:00.071Z,97982.58
2019-03-11T21:24:38.207Z,97976.28
2019-03-11T21:27:12.558Z,97995.01
2019-03-11T21:29:50.567Z,97984.02
2019-03-11T21:32:25.842Z,97970.73
2019-03-11T21:35:01.267Z,97974.71
2019-03-11T21:37:34.765Z,97968.34
2019-03-11T21:40:05.434Z,97980.13
2019-03-11T21:42:38.162Z,97985.98
2019-03-11T21:45:33.525Z,97978.85
2019-03-11T21:47:58.958Z,97979.53
2019-03-11T21:50:30.188Z,97983.20
2019-03-11T21:53:16.512Z,97987.61
2019-03-11T21:55:51.144Z,97987.91
2019-03-11T21:58:24.666Z,97994.01
2019-03-11T22:00:57.148Z,97992.03
2019-03-11T22:03:28.579Z,97995.19
2019-03-11T22:06:02.770Z,97995.84
2019-03-11T22:08:34.163Z,97993.88
2019-03-11T22:11:11.840Z,97997.19
2019-03-11T22:13:43.607Z,97996.27
2019-03-11T22:16:15.939Z,97997.47
2019-03-11T22:18:51.220Z,97993.45
2019-03-11T22:21:22.641Z,98005.39
2019-03-11T22:23:53.836Z,98005.99
2019-03-11T22:26:25.349Z,98001.78
2019-03-11T22:28:56.300Z,98012.58
2019-03-11T22:31:27.348Z,98011.85
2019-03-11T22:33:58.683Z,98014.77
2019-03-11T22:36:30.576Z,98017.45
2019-03-11T22:39:01.526Z,98021.47
2019-03-11T22:41:33.183Z,98020.41
2019-03-11T22:44:04.249Z,98018.75
2019-03-11T22:46:44.027Z,98003.92
2019-03-11T22:49:14.710Z,98009.16
2019-03-11T22:51:45.271Z,98004.95
2019-03-11T22:54:15.915Z,97999.27
2019-03-11T22:56:49.564Z,98000.58
2019-03-11T22:59:20.558Z,97996.30
2019-03-11T23:01:52.771Z,97997.95
2019-03-11T23:04:24.149Z,97993.56
2019-03-11T23:07:04.487Z,97994.23
2019-03-11T23:09:35.993Z,97992.98
2019-03-11T23:12:06.621Z,97985.98
2019-03-11T23:14:38.143Z,97989.73
2019-03-11T23:17:09.448Z,97993.84
2019-03-11T23:19:42.535Z,97998.44
2019-03-11T23:22:13.175Z,97996.71
2019-03-11T23:24:44.248Z,97992.66
2019-03-11T23:27:16.090Z,97990.95
2019-03-11T23:29:47.860Z,97998.73
2019-03-11T23:32:42.040Z,98002.74
2019-03-11T23:35:14.513Z,98000.51
2019-03-11T23:37:45.975Z,97999.03
2019-03-11T23:40:16.900Z,98004.44
2019-03-11T23:42:48.280Z,98004.79
2019-03-11T23:45:18.604Z,98009.15
2019-03-11T23:47:51.564Z,98002.89
2019-03-11T23:50:23.507Z,98003.53
2019-03-11T23:57:09.617Z,98013.18
2019-03-11T23:59:40.942Z,98012.45
